Time;durP1;ratioP1;P1;durP2;ratioP2;P2;SDS_P1;SDS_P2;PMS_P1;PMS_P2;Temp;Humidity;BMP_temperature;BMP_pressure;BME280_temperature;BME280_humidity;BME280_pressure;Samples;Min_cycle;Max_cycle;Signal;HPM_P1;HPM_P2
2022/11/11 00:02:37;;;;;;;114.95;40.40;;;;;;;;;;6306495;28;20052;-62
2022/11/11 00:05:37;;;;;;;116.50;41.38;;;;;;;;;;6313754;28;20063;-62
2022/11/11 00:08:38;;;;;;;117.32;40.90;;;;;;;;;;6309877;28;20486;-62
2022/11/11 00:11:38;;;;;;;111.05;39.72;;;;;;;;;;6313279;28;20044;-69
2022/11/11 00:14:39;;;;;;;136.20;51.15;;;;;;;;;;6313914;28;20051;-62
2022/11/11 00:27:46;;;;;;;113.97;37.28;;;;;;;;;;6299715;28;20048;-62
2022/11/11 00:30:46;;;;;;;118.07;42.25;;;;;;;;;;6300507;28;20083;-62
2022/11/11 00:33:47;;;;;;;122.25;40.95;;;;;;;;;;6314131;28;20052;-62
2022/11/11 00:36:47;;;;;;;115.90;40.00;;;;;;;;;;6306255;28;20082;-61
2022/11/11 00:39:48;;;;;;;119.53;39.78;;;;;;;;;;6299802;28;20076;-61
2022/11/11 00:42:48;;;;;;;115.25;39.53;;;;;;;;;;6313121;28;20519;-61
2022/11/11 00:45:49;;;;;;;106.78;37.55;;;;;;;;;;6309324;28;20044;-61
2022/11/11 00:52:09;;;;;;;108.10;36.70;;;;;;;;;;6310645;28;20144;-61
2022/11/11 00:55:09;;;;;;;111.20;38.05;;;;;;;;;;6315986;28;20048;-61
2022/11/11 00:58:10;;;;;;;105.75;35.28;;;;;;;;;;6315125;28;20091;-61
2022/11/11 01:01:11;;;;;;;105.43;35.80;;;;;;;;;;6309051;28;20113;-62
2022/11/11 01:04:12;;;;;;;92.70;34.17;;;;;;;;;;6289895;28;20044;-61
2022/11/11 01:07:13;;;;;;;101.85;38.00;;;;;;;;;;6316232;28;20093;-62
2022/11/11 01:10:36;;;;;;;101.07;36.05;;;;;;;;;;6316473;28;20043;-61
2022/11/11 01:13:34;;;;;;;102.95;34.72;;;;;;;;;;6316675;28;20093;-63
2022/11/11 01:16:34;;;;;;;99.63;37.40;;;;;;;;;;6309121;28;20379;-61
2022/11/11 01:19:35;;;;;;;88.10;31.88;;;;;;;;;;6289857;28;20051;-62
2022/11/11 01:22:38;;;;;;;109.18;36.03;;;;;;;;;;6293604;28;20482;-61
2022/11/11 01:25:40;;;;;;;110.20;38.88;;;;;;;;;;6291258;28;20086;-63
2022/11/11 01:28:42;;;;;;;116.85;39.70;;;;;;;;;;6289543;28;20098;-62
2022/11/11 01:31:42;;;;;;;109.57;40.03;;;;;;;;;;6309342;28;20467;-68
2022/11/11 01:34:44;;;;;;;95.20;32.85;;;;;;;;;;6292642;28;20051;-62
2022/11/11 01:37:44;;;;;;;94.68;35.50;;;;;;;;;;6292671;28;20497;-62
2022/11/11 01:40:48;;;;;;;92.82;33.53;;;;;;;;;;6317338;28;20040;-61
2022/11/11 01:43:49;;;;;;;104.15;37.65;;;;;;;;;;6300666;28;20044;-62
2022/11/11 01:46:56;;;;;;;95.60;33.78;;;;;;;;;;6314051;28;20048;-61
2022/11/11 01:50:00;;;;;;;104.40;34.13;;;;;;;;;;6313273;28;20414;-61
2022/11/11 01:53:01;;;;;;;107.25;36.88;;;;;;;;;;6307140;28;20374;-61
2022/11/11 01:56:03;;;;;;;100.10;35.13;;;;;;;;;;6295003;28;20071;-65
2022/11/11 01:59:13;;;;;;;93.15;33.55;;;;;;;;;;6295465;28;20450;-61
2022/11/11 02:02:24;;;;;;;98.80;35.28;;;;;;;;;;6294045;28;20052;-64
2022/11/11 02:05:42;;;;;;;99.60;35.03;;;;;;;;;;6308046;28;20055;-62
2022/11/11 02:08:42;;;;;;;98.72;36.20;;;;;;;;;;6311053;28;20082;-62
2022/11/11 02:15:05;;;;;;;111.03;44.92;;;;;;;;;;6301295;28;20135;-62
2022/11/11 02:18:06;;;;;;;95.95;34.75;;;;;;;;;;6317002;28;20536;-62
2022/11/11 02:21:07;;;;;;;95.78;35.22;;;;;;;;;;6296009;28;20041;-67
2022/11/11 02:24:13;;;;;;;97.97;34.15;;;;;;;;;;6296292;28;20040;-64
2022/11/11 02:27:16;;;;;;;97.07;32.70;;;;;;;;;;6302466;28;20044;-61
2022/11/11 02:30:20;;;;;;;92.75;32.80;;;;;;;;;;6297470;28;20413;-62
2022/11/11 02:33:20;;;;;;;92.13;34.67;;;;;;;;;;6296648;28;20411;-62
2022/11/11 02:36:21;;;;;;;92.88;34.95;;;;;;;;;;6293983;28;20047;-62
2022/11/11 02:39:23;;;;;;;105.10;37.17;;;;;;;;;;6290112;28;20094;-62
2022/11/11 02:42:24;;;;;;;97.40;35.00;;;;;;;;;;6288800;28;20075;-61
2022/11/11 02:45:24;;;;;;;95.65;34.20;;;;;;;;;;6298550;28;20056;-61
2022/11/11 02:48:26;;;;;;;100.72;35.67;;;;;;;;;;6314798;28;20058;-61
2022/11/11 02:51:26;;;;;;;98.53;33.70;;;;;;;;;;6295896;28;20044;-62
2022/11/11 02:54:27;;;;;;;95.30;33.70;;;;;;;;;;6295319;28;20532;-61
2022/11/11 02:57:27;;;;;;;94.55;32.45;;;;;;;;;;6291768;28;20159;-66
2022/11/11 03:00:28;;;;;;;96.72;34.83;;;;;;;;;;6294366;28;20044;-61
2022/11/11 03:03:29;;;;;;;100.93;34.97;;;;;;;;;;6291337;28;20067;-61
2022/11/11 03:06:30;;;;;;;97.13;33.50;;;;;;;;;;6293902;28;20063;-62
2022/11/11 03:09:31;;;;;;;96.05;33.67;;;;;;;;;;6296349;28;20048;-62
2022/11/11 03:12:31;;;;;;;97.35;32.97;;;;;;;;;;6306601;28;20044;-62
2022/11/11 03:15:32;;;;;;;97.70;34.88;;;;;;;;;;6312661;28;22394;-62
2022/11/11 03:18:33;;;;;;;101.03;36.92;;;;;;;;;;6294561;28;20044;-66
2022/11/11 03:21:34;;;;;;;94.28;33.65;;;;;;;;;;6311686;28;20511;-61
2022/11/11 03:27:53;;;;;;;96.70;31.08;;;;;;;;;;6300368;28;20040;-62
2022/11/11 03:30:54;;;;;;;97.85;35.33;;;;;;;;;;6301404;28;20142;-61
2022/11/11 03:33:54;;;;;;;88.32;31.67;;;;;;;;;;6296998;28;20101;-62
2022/11/11 03:40:14;;;;;;;99.47;35.03;;;;;;;;;;6306532;28;20043;-62
2022/11/11 03:43:17;;;;;;;90.53;32.10;;;;;;;;;;6292921;28;20052;-61
2022/11/11 03:46:17;;;;;;;85.15;33.10;;;;;;;;;;6292715;28;20051;-62
2022/11/11 03:49:18;;;;;;;87.68;31.10;;;;;;;;;;6293074;28;20041;-65
2022/11/11 03:52:18;;;;;;;93.75;31.40;;;;;;;;;;6293091;28;20048;-62
2022/11/11 03:55:19;;;;;;;90.35;32.28;;;;;;;;;;6299118;28;20048;-61
2022/11/11 03:58:19;;;;;;;86.43;34.40;;;;;;;;;;6311364;28;20044;-62
2022/11/11 04:11:27;;;;;;;92.90;41.08;;;;;;;;;;6289755;28;20037;-62
2022/11/11 04:17:46;;;;;;;87.75;34.75;;;;;;;;;;6291074;28;20475;-61
2022/11/11 04:27:26;;;;;;;85.90;31.75;;;;;;;;;;6293995;28;20415;-62
2022/11/11 04:30:27;;;;;;;78.80;32.28;;;;;;;;;;6291223;28;20049;-62
2022/11/11 04:33:27;;;;;;;77.30;30.65;;;;;;;;;;6289804;28;20048;-64
2022/11/11 04:36:28;;;;;;;93.47;32.63;;;;;;;;;;6290202;28;20052;-61
2022/11/11 04:42:48;;;;;;;82.35;29.88;;;;;;;;;;6289174;28;20511;-62
2022/11/11 04:45:48;;;;;;;85.35;33.13;;;;;;;;;;6291009;28;20041;-62
2022/11/11 04:48:49;;;;;;;79.97;29.98;;;;;;;;;;6292529;28;20033;-61
2022/11/11 04:58:33;;;;;;;80.13;30.48;;;;;;;;;;6290821;28;20883;-61
2022/11/11 05:04:52;;;;;;;62.97;23.50;;;;;;;;;;6304387;28;20139;-61
2022/11/11 05:11:13;;;;;;;51.40;20.33;;;;;;;;;;6292084;28;20090;-61
2022/11/11 05:27:31;;;;;;;52.30;18.58;;;;;;;;;;6294018;28;20049;-64
2022/11/11 05:30:33;;;;;;;52.17;19.67;;;;;;;;;;6296147;28;20051;-61
2022/11/11 05:33:33;;;;;;;57.20;20.10;;;;;;;;;;6291500;28;20052;-61
2022/11/11 05:36:34;;;;;;;49.03;17.70;;;;;;;;;;6297066;28;20044;-61
2022/11/11 05:39:35;;;;;;;52.70;19.40;;;;;;;;;;6320413;28;20055;-61
2022/11/11 05:42:40;;;;;;;57.03;19.35;;;;;;;;;;6301680;28;20047;-61
2022/11/11 05:45:41;;;;;;;51.13;19.10;;;;;;;;;;6319421;28;20089;-61
2022/11/11 05:49:14;;;;;;;49.38;17.73;;;;;;;;;;6316781;28;20062;-61
2022/11/11 05:52:04;;;;;;;46.70;19.35;;;;;;;;;;6294702;28;20044;-61
2022/11/11 05:55:05;;;;;;;53.50;17.85;;;;;;;;;;6297867;28;20068;-62
2022/11/11 05:58:05;;;;;;;48.13;18.50;;;;;;;;;;6321549;28;20083;-61
2022/11/11 06:01:06;;;;;;;54.50;18.63;;;;;;;;;;6294643;28;20052;-61
2022/11/11 06:04:07;;;;;;;52.65;18.45;;;;;;;;;;6291355;28;20049;-61
2022/11/11 06:07:08;;;;;;;50.15;18.55;;;;;;;;;;6295543;28;20050;-61
2022/11/11 06:13:28;;;;;;;46.75;17.65;;;;;;;;;;6293808;28;20066;-62
2022/11/11 06:16:28;;;;;;;44.78;17.63;;;;;;;;;;6297853;28;22029;-61
2022/11/11 06:19:29;;;;;;;48.78;21.23;;;;;;;;;;6296246;28;20796;-61
2022/11/11 06:26:13;;;;;;;71.55;30.52;;;;;;;;;;6191316;28;20092;-62
2022/11/11 06:29:13;;;;;;;68.05;31.27;;;;;;;;;;6193398;28;20138;-61
2022/11/11 06:32:14;;;;;;;64.32;26.90;;;;;;;;;;6317011;28;20048;-62
2022/11/11 06:35:15;;;;;;;52.35;25.20;;;;;;;;;;6318391;28;20048;-62
2022/11/11 06:38:16;;;;;;;42.55;16.95;;;;;;;;;;6312015;28;20048;-61
2022/11/11 06:41:17;;;;;;;39.88;14.88;;;;;;;;;;6308532;28;20040;-61
2022/11/11 06:44:18;;;;;;;35.10;14.30;;;;;;;;;;6314648;28;20121;-65
2022/11/11 06:47:18;;;;;;;41.28;14.98;;;;;;;;;;6305254;28;20052;-61
2022/11/11 06:50:21;;;;;;;40.08;15.05;;;;;;;;;;6295299;28;20072;-62
2022/11/11 06:53:22;;;;;;;36.55;13.30;;;;;;;;;;6293148;28;20075;-66
2022/11/11 06:56:22;;;;;;;65.40;30.25;;;;;;;;;;6287878;28;20072;-62
2022/11/11 06:59:23;;;;;;;61.05;25.60;;;;;;;;;;6292650;28;20553;-62
2022/11/11 07:02:24;;;;;;;56.40;25.08;;;;;;;;;;6301297;28;20048;-61
2022/11/11 07:05:24;;;;;;;51.67;23.85;;;;;;;;;;6292872;28;20052;-62
2022/11/11 07:08:25;;;;;;;46.92;18.85;;;;;;;;;;6295140;28;20043;-62
2022/11/11 07:11:26;;;;;;;36.45;15.70;;;;;;;;;;6295521;28;20044;-61
2022/11/11 07:14:26;;;;;;;37.53;14.82;;;;;;;;;;6294579;28;20048;-61
2022/11/11 07:17:27;;;;;;;41.45;15.40;;;;;;;;;;6300265;28;20051;-61
2022/11/11 07:20:28;;;;;;;43.55;17.38;;;;;;;;;;6302817;28;20554;-62
2022/11/11 07:23:28;;;;;;;52.05;18.77;;;;;;;;;;6310333;28;20048;-61
2022/11/11 07:26:29;;;;;;;46.03;17.80;;;;;;;;;;6299768;28;20449;-68
2022/11/11 07:29:29;;;;;;;50.17;20.63;;;;;;;;;;6306700;28;20036;-62
2022/11/11 07:32:30;;;;;;;63.60;27.02;;;;;;;;;;6302980;28;20044;-60
2022/11/11 07:35:31;;;;;;;65.65;24.70;;;;;;;;;;6292745;28;20059;-61
2022/11/11 07:38:32;;;;;;;67.50;25.92;;;;;;;;;;6310497;28;20131;-61
2022/11/11 07:41:32;;;;;;;56.83;24.02;;;;;;;;;;6298895;28;20048;-61
2022/11/11 07:44:33;;;;;;;61.42;27.00;;;;;;;;;;6297591;28;20055;-62
2022/11/11 07:47:34;;;;;;;70.22;28.95;;;;;;;;;;6306569;28;20051;-62
2022/11/11 07:50:34;;;;;;;71.95;28.42;;;;;;;;;;6318636;28;20909;-62
2022/11/11 07:53:35;;;;;;;57.20;22.98;;;;;;;;;;6310111;28;20048;-62
2022/11/11 07:56:36;;;;;;;50.67;20.58;;;;;;;;;;6296246;28;20105;-62
2022/11/11 07:59:36;;;;;;;48.33;19.27;;;;;;;;;;6317453;28;20039;-62
2022/11/11 08:02:37;;;;;;;46.63;19.23;;;;;;;;;;6317325;28;20052;-63
2022/11/11 08:05:37;;;;;;;56.20;20.77;;;;;;;;;;6315413;28;20040;-64
2022/11/11 08:08:38;;;;;;;51.10;21.67;;;;;;;;;;6317082;28;20119;-63
2022/11/11 08:14:57;;;;;;;53.17;20.52;;;;;;;;;;6318294;28;20052;-63
2022/11/11 08:17:58;;;;;;;52.03;21.63;;;;;;;;;;6316112;28;20497;-63
2022/11/11 08:20:58;;;;;;;54.13;21.98;;;;;;;;;;6304668;28;20047;-64
2022/11/11 08:23:59;;;;;;;51.30;21.23;;;;;;;;;;6315673;28;20054;-64
2022/11/11 08:27:00;;;;;;;53.35;20.52;;;;;;;;;;6311590;28;20048;-63
2022/11/11 08:30:00;;;;;;;55.05;20.10;;;;;;;;;;6310606;28;20059;-62
2022/11/11 08:33:03;;;;;;;50.75;20.75;;;;;;;;;;6304413;28;20058;-63
2022/11/11 08:36:06;;;;;;;50.30;21.20;;;;;;;;;;6297565;28;20076;-60
2022/11/11 08:39:07;;;;;;;60.75;21.25;;;;;;;;;;6295113;28;20056;-61
2022/11/11 08:42:07;;;;;;;43.90;18.67;;;;;;;;;;6293040;28;20079;-61
2022/11/11 08:45:08;;;;;;;45.88;17.58;;;;;;;;;;6290463;28;20127;-61
2022/11/11 08:48:09;;;;;;;45.45;18.05;;;;;;;;;;6291005;28;20048;-65
2022/11/11 08:51:10;;;;;;;50.90;16.80;;;;;;;;;;6289368;28;20055;-62
2022/11/11 08:54:11;;;;;;;43.55;17.52;;;;;;;;;;6288837;28;20403;-63
2022/11/11 08:57:11;;;;;;;43.47;17.25;;;;;;;;;;6286620;28;20048;-61
2022/11/11 09:00:13;;;;;;;41.50;15.82;;;;;;;;;;6288572;28;20044;-61
2022/11/11 09:03:14;;;;;;;42.70;15.85;;;;;;;;;;6287439;28;20044;-65
2022/11/11 09:06:15;;;;;;;39.58;14.13;;;;;;;;;;6291633;28;20045;-61
2022/11/11 09:09:16;;;;;;;41.53;15.02;;;;;;;;;;6289420;28;20047;-61
2022/11/11 09:12:16;;;;;;;43.08;15.82;;;;;;;;;;6295863;28;20036;-62
2022/11/11 09:15:17;;;;;;;42.85;16.20;;;;;;;;;;6289034;28;20044;-62
2022/11/11 09:18:17;;;;;;;37.53;15.25;;;;;;;;;;6289463;28;20048;-61
2022/11/11 09:21:18;;;;;;;40.78;14.98;;;;;;;;;;6289310;28;20044;-61
2022/11/11 09:24:18;;;;;;;40.17;14.68;;;;;;;;;;6291747;28;20048;-61
2022/11/11 09:27:19;;;;;;;37.15;14.50;;;;;;;;;;6307863;28;20044;-61
2022/11/11 09:30:23;;;;;;;36.53;14.15;;;;;;;;;;6298835;28;20048;-68
2022/11/11 09:33:24;;;;;;;46.83;15.32;;;;;;;;;;6288134;28;20056;-61
2022/11/11 09:36:24;;;;;;;42.53;14.93;;;;;;;;;;6291407;28;20049;-61
2022/11/11 09:39:25;;;;;;;34.63;14.07;;;;;;;;;;6293824;28;20051;-62
2022/11/11 09:42:55;;;;;;;36.38;14.32;;;;;;;;;;6290696;28;20041;-61
2022/11/11 09:46:14;;;;;;;38.92;14.65;;;;;;;;;;6286213;28;20041;-61
2022/11/11 09:49:40;;;;;;;36.08;13.82;;;;;;;;;;6285210;28;20064;-61
2022/11/11 09:52:41;;;;;;;36.55;13.32;;;;;;;;;;6288992;28;20046;-61
2022/11/11 09:55:45;;;;;;;35.80;13.02;;;;;;;;;;6288305;28;20036;-61
2022/11/11 09:58:51;;;;;;;35.60;13.52;;;;;;;;;;6305469;28;20089;-61
2022/11/11 10:01:57;;;;;;;37.47;14.68;;;;;;;;;;6296645;28;20090;-62
2022/11/11 10:05:13;;;;;;;33.63;15.55;;;;;;;;;;6296094;28;20069;-61
2022/11/11 10:08:32;;;;;;;27.88;12.50;;;;;;;;;;6295078;28;20340;-61
2022/11/11 10:11:52;;;;;;;30.88;13.88;;;;;;;;;;6295537;28;20045;-61
2022/11/11 10:14:54;;;;;;;35.08;13.05;;;;;;;;;;6294231;28;20094;-61
2022/11/11 10:18:11;;;;;;;33.67;13.07;;;;;;;;;;6292880;28;20054;-62
2022/11/11 10:21:21;;;;;;;42.00;13.55;;;;;;;;;;6307091;28;20052;-63
2022/11/11 10:24:32;;;;;;;37.75;13.50;;;;;;;;;;6314517;28;20052;-61
2022/11/11 10:27:33;;;;;;;32.90;13.50;;;;;;;;;;6290778;28;20130;-62
2022/11/11 10:30:34;;;;;;;32.53;13.35;;;;;;;;;;6261710;28;20045;-61
2022/11/11 10:33:45;;;;;;;33.15;13.48;;;;;;;;;;6292235;28;20089;-62
2022/11/11 10:36:53;;;;;;;30.57;13.37;;;;;;;;;;6297219;28;20098;-60
2022/11/11 10:40:18;;;;;;;31.80;12.82;;;;;;;;;;6294706;28;20045;-61
2022/11/11 10:43:28;;;;;;;33.40;13.05;;;;;;;;;;6292798;28;20109;-61
2022/11/11 10:46:42;;;;;;;37.83;18.40;;;;;;;;;;6292736;28;20171;-61
2022/11/11 10:49:55;;;;;;;33.65;14.45;;;;;;;;;;6291080;28;20044;-60
2022/11/11 10:53:31;;;;;;;34.72;13.35;;;;;;;;;;6298016;28;20520;-61
2022/11/11 10:56:36;;;;;;;30.95;14.10;;;;;;;;;;6317760;28;20056;-60
2022/11/11 10:59:46;;;;;;;42.08;15.77;;;;;;;;;;6319563;28;20058;-62
2022/11/11 11:02:58;;;;;;;33.30;14.13;;;;;;;;;;6318059;28;20136;-61
2022/11/11 11:06:19;;;;;;;37.35;16.73;;;;;;;;;;6318515;28;20118;-60
2022/11/11 11:09:22;;;;;;;39.33;14.77;;;;;;;;;;6318516;28;20056;-61
2022/11/11 11:12:23;;;;;;;35.42;14.80;;;;;;;;;;6310219;28;20064;-61
2022/11/11 11:15:27;;;;;;;39.15;15.68;;;;;;;;;;6307544;28;20063;-61
2022/11/11 11:18:28;;;;;;;41.67;16.38;;;;;;;;;;6314734;28;20084;-60
2022/11/11 11:21:49;;;;;;;41.47;16.20;;;;;;;;;;6305136;28;20403;-60
2022/11/11 11:24:50;;;;;;;36.45;16.08;;;;;;;;;;6305604;28;20052;-66
2022/11/11 11:28:03;;;;;;;42.92;16.85;;;;;;;;;;6303906;28;20537;-61
2022/11/11 11:31:05;;;;;;;40.70;15.98;;;;;;;;;;6298671;28;20044;-68
2022/11/11 11:34:07;;;;;;;37.15;15.70;;;;;;;;;;6306643;28;20044;-60
2022/11/11 11:37:07;;;;;;;38.33;15.43;;;;;;;;;;6308934;28;20051;-61
2022/11/11 11:40:08;;;;;;;36.55;15.07;;;;;;;;;;6314442;28;20446;-60
2022/11/11 11:43:41;;;;;;;34.88;15.18;;;;;;;;;;6319368;28;20040;-67
2022/11/11 11:46:45;;;;;;;37.88;16.17;;;;;;;;;;6295049;28;20475;-61
2022/11/11 11:49:57;;;;;;;40.85;15.23;;;;;;;;;;6310218;28;20422;-61
2022/11/11 11:53:03;;;;;;;32.88;14.38;;;;;;;;;;6311776;28;20067;-60
2022/11/11 11:56:18;;;;;;;36.20;14.55;;;;;;;;;;6309039;28;20128;-62
2022/11/11 11:59:26;;;;;;;31.63;13.82;;;;;;;;;;6303592;28;20068;-61
2022/11/11 12:02:37;;;;;;;34.40;13.90;;;;;;;;;;6300853;28;20040;-60
2022/11/11 12:05:45;;;;;;;35.23;13.67;;;;;;;;;;6317168;28;20151;-61
2022/11/11 12:09:01;;;;;;;32.78;14.02;;;;;;;;;;6318531;28;20048;-61
2022/11/11 12:12:28;;;;;;;33.15;12.82;;;;;;;;;;6305174;28;20052;-61
2022/11/11 12:15:37;;;;;;;33.92;12.93;;;;;;;;;;6307384;28;20376;-62
2022/11/11 12:18:43;;;;;;;32.40;12.30;;;;;;;;;;6309754;28;20058;-60
2022/11/11 12:22:01;;;;;;;30.50;12.13;;;;;;;;;;6290152;28;20052;-61
2022/11/11 12:25:21;;;;;;;35.08;14.05;;;;;;;;;;6278031;28;20060;-61
2022/11/11 12:28:31;;;;;;;28.95;11.18;;;;;;;;;;6282581;28;20051;-60
2022/11/11 12:31:35;;;;;;;26.92;11.23;;;;;;;;;;6285180;28;20574;-60
2022/11/11 12:35:12;;;;;;;32.80;13.45;;;;;;;;;;6285367;28;20052;-60
2022/11/11 12:38:39;;;;;;;27.20;11.52;;;;;;;;;;6283754;28;20105;-62
2022/11/11 12:41:54;;;;;;;28.63;11.80;;;;;;;;;;6281152;28;20163;-64
2022/11/11 12:45:10;;;;;;;30.65;11.93;;;;;;;;;;6283413;28;20138;-60
2022/11/11 12:48:49;;;;;;;32.60;12.40;;;;;;;;;;6284567;28;20088;-61
2022/11/11 12:51:52;;;;;;;35.30;12.32;;;;;;;;;;6279081;28;20052;-66
2022/11/11 12:54:55;;;;;;;31.67;12.45;;;;;;;;;;6278050;28;20629;-61
2022/11/11 12:57:59;;;;;;;34.25;11.80;;;;;;;;;;6259408;28;20574;-61
2022/11/11 13:01:07;;;;;;;24.17;11.45;;;;;;;;;;6278880;28;20434;-66
2022/11/11 13:04:32;;;;;;;30.83;12.23;;;;;;;;;;6276362;28;20048;-61
2022/11/11 13:07:59;;;;;;;30.23;11.35;;;;;;;;;;6277962;28;20220;-67
2022/11/11 13:11:26;;;;;;;31.35;11.25;;;;;;;;;;6277184;28;20044;-61
2022/11/11 13:14:36;;;;;;;26.13;10.55;;;;;;;;;;6268136;28;20106;-61
2022/11/11 13:17:37;;;;;;;26.92;11.43;;;;;;;;;;6279454;28;20049;-61
2022/11/11 13:20:51;;;;;;;25.55;10.90;;;;;;;;;;6277031;28;20070;-63
2022/11/11 13:23:52;;;;;;;26.02;10.40;;;;;;;;;;6275761;28;20044;-61
2022/11/11 13:27:03;;;;;;;30.23;11.23;;;;;;;;;;6274976;28;20484;-60
2022/11/11 13:30:34;;;;;;;30.77;10.85;;;;;;;;;;6279519;28;20048;-61
2022/11/11 13:33:38;;;;;;;24.10;10.02;;;;;;;;;;6271852;28;20759;-65
2022/11/11 13:36:45;;;;;;;24.88;10.82;;;;;;;;;;6282655;28;20060;-61
2022/11/11 13:39:50;;;;;;;25.23;10.52;;;;;;;;;;6285660;28;20663;-61
2022/11/11 13:42:51;;;;;;;26.20;10.57;;;;;;;;;;6280180;28;20051;-59
2022/11/11 13:45:55;;;;;;;22.75;9.40;;;;;;;;;;6281864;28;20423;-61
2022/11/11 13:48:57;;;;;;;27.40;10.52;;;;;;;;;;6284031;28;20040;-60
2022/11/11 13:52:18;;;;;;;34.28;12.02;;;;;;;;;;6280274;28;20049;-61
2022/11/11 13:55:32;;;;;;;21.75;10.13;;;;;;;;;;6282442;28;20423;-61
2022/11/11 13:58:36;;;;;;;26.15;10.63;;;;;;;;;;6279540;28;20044;-60
2022/11/11 14:01:39;;;;;;;27.33;11.52;;;;;;;;;;6290461;28;20052;-61
2022/11/11 14:05:05;;;;;;;29.15;11.27;;;;;;;;;;6285677;28;20056;-62
2022/11/11 14:08:06;;;;;;;27.27;11.80;;;;;;;;;;6285842;28;20058;-62
2022/11/11 14:11:25;;;;;;;39.00;20.27;;;;;;;;;;6287063;28;20091;-62
2022/11/11 14:14:26;;;;;;;78.32;39.63;;;;;;;;;;6284999;28;20048;-63
2022/11/11 14:17:28;;;;;;;41.85;20.33;;;;;;;;;;6286151;28;20060;-60
2022/11/11 14:20:29;;;;;;;37.13;16.23;;;;;;;;;;6285512;28;20513;-61
2022/11/11 14:23:55;;;;;;;38.63;19.40;;;;;;;;;;6282732;28;20053;-60
2022/11/11 14:27:09;;;;;;;26.30;12.30;;;;;;;;;;6278609;28;20045;-60
2022/11/11 14:30:26;;;;;;;55.20;21.30;;;;;;;;;;6286419;28;20094;-61
2022/11/11 14:33:48;;;;;;;35.50;15.07;;;;;;;;;;6287256;28;20047;-61
2022/11/11 14:36:57;;;;;;;44.38;21.02;;;;;;;;;;6288976;28;20048;-60
2022/11/11 14:39:58;;;;;;;41.25;21.50;;;;;;;;;;6286069;28;20052;-61
2022/11/11 14:43:19;;;;;;;34.67;16.70;;;;;;;;;;6282892;28;20055;-61
2022/11/11 14:46:20;;;;;;;40.90;20.38;;;;;;;;;;6287941;28;20045;-62
2022/11/11 14:49:45;;;;;;;34.28;14.63;;;;;;;;;;6287339;28;20048;-61
2022/11/11 14:52:46;;;;;;;29.55;11.95;;;;;;;;;;6285194;28;20044;-61
2022/11/11 14:55:51;;;;;;;32.45;12.23;;;;;;;;;;6286383;28;20053;-61
2022/11/11 14:58:52;;;;;;;27.55;11.02;;;;;;;;;;6284458;28;20521;-61
2022/11/11 15:01:54;;;;;;;32.13;12.48;;;;;;;;;;6280031;28;20040;-60
2022/11/11 15:04:59;;;;;;;25.08;11.13;;;;;;;;;;6282621;28;20045;-61
2022/11/11 15:08:02;;;;;;;26.30;11.55;;;;;;;;;;6280658;28;20056;-60
2022/11/11 15:11:37;;;;;;;29.48;12.65;;;;;;;;;;6283501;28;20047;-60
2022/11/11 15:15:02;;;;;;;27.50;11.98;;;;;;;;;;6279370;28;20059;-61
2022/11/11 15:18:26;;;;;;;29.33;12.57;;;;;;;;;;6282793;28;20064;-61
2022/11/11 15:21:35;;;;;;;29.30;12.63;;;;;;;;;;6281220;28;20124;-58
2022/11/11 15:25:13;;;;;;;33.20;12.88;;;;;;;;;;6281347;28;20111;-60
2022/11/11 15:28:51;;;;;;;29.23;12.23;;;;;;;;;;6282248;28;20095;-61
2022/11/11 15:32:11;;;;;;;29.77;13.23;;;;;;;;;;6280930;28;20097;-60
2022/11/11 15:35:40;;;;;;;33.90;13.55;;;;;;;;;;6282187;28;20057;-60
2022/11/11 15:38:41;;;;;;;33.58;12.93;;;;;;;;;;6280607;28;20590;-61
2022/11/11 15:41:45;;;;;;;33.10;13.25;;;;;;;;;;6281195;28;20055;-61
2022/11/11 15:44:46;;;;;;;37.13;13.93;;;;;;;;;;6279298;28;20060;-60
2022/11/11 15:47:48;;;;;;;38.78;14.10;;;;;;;;;;6281999;28;20048;-61
2022/11/11 15:50:48;;;;;;;;;;;;;;;;;;6283256;28;20059;-62
2022/11/11 15:53:49;;;;;;;39.25;14.18;;;;;;;;;;6281262;28;19928;-61
2022/11/11 15:56:49;;;;;;;36.90;13.30;;;;;;;;;;6281678;28;20608;-60
2022/11/11 15:59:50;;;;;;;37.00;14.80;;;;;;;;;;6280204;28;21329;-62
2022/11/11 16:02:53;;;;;;;36.97;13.57;;;;;;;;;;6279549;28;20872;-61
2022/11/11 16:05:53;;;;;;;57.33;22.10;;;;;;;;;;6278149;28;20060;-61
2022/11/11 16:08:55;;;;;;;58.22;27.60;;;;;;;;;;6281071;28;20418;-63
2022/11/11 16:11:57;;;;;;;77.00;37.65;;;;;;;;;;6280093;28;20052;-61
2022/11/11 16:14:59;;;;;;;48.63;25.42;;;;;;;;;;6279651;28;20493;-61
2022/11/11 16:18:04;;;;;;;48.47;20.08;;;;;;;;;;6282487;28;20052;-61
2022/11/11 16:21:21;;;;;;;35.17;15.05;;;;;;;;;;6279504;28;20462;-61
2022/11/11 16:24:32;;;;;;;42.67;17.42;;;;;;;;;;6280086;28;20048;-63
2022/11/11 16:27:33;;;;;;;34.33;15.45;;;;;;;;;;6281791;28;20066;-62
2022/11/11 16:30:36;;;;;;;39.00;16.00;;;;;;;;;;6279979;28;20049;-60
2022/11/11 16:33:37;;;;;;;56.72;21.15;;;;;;;;;;6279999;28;20048;-60
2022/11/11 16:37:06;;;;;;;57.80;21.70;;;;;;;;;;6281061;28;20178;-61
2022/11/11 16:40:31;;;;;;;44.85;18.88;;;;;;;;;;6280881;28;20139;-61
2022/11/11 16:43:33;;;;;;;42.17;17.02;;;;;;;;;;6277827;28;20052;-60
2022/11/11 16:46:33;;;;;;;49.35;17.15;;;;;;;;;;6279371;28;20044;-62
2022/11/11 16:49:41;;;;;;;44.20;16.70;;;;;;;;;;6279487;28;20509;-65
2022/11/11 16:52:48;;;;;;;44.78;16.42;;;;;;;;;;6277686;28;20048;-61
2022/11/11 16:55:49;;;;;;;44.17;16.75;;;;;;;;;;6278660;28;20139;-60
2022/11/11 16:58:58;;;;;;;50.03;20.90;;;;;;;;;;6280919;28;20608;-62
2022/11/11 17:01:58;;;;;;;59.15;25.48;;;;;;;;;;6279173;28;20410;-60
2022/11/11 17:05:00;;;;;;;90.03;38.95;;;;;;;;;;6278280;28;20087;-60
2022/11/11 17:08:26;;;;;;;74.03;32.47;;;;;;;;;;6280214;28;20408;-60
2022/11/11 17:11:39;;;;;;;89.32;35.05;;;;;;;;;;6280133;28;20053;-60
2022/11/11 17:14:39;;;;;;;;;;;;;;;;;;6278821;28;20052;-60
2022/11/11 17:17:42;;;;;;;47.88;19.98;;;;;;;;;;6278642;28;19929;-61
2022/11/11 17:20:42;;;;;;;;;;;;;;;;;;6281581;28;20815;-60
2022/11/11 17:23:43;;;;;;;46.50;19.63;;;;;;;;;;6277391;28;19935;-59
2022/11/11 17:26:44;;;;;;;47.20;19.33;;;;;;;;;;6279612;28;20105;-60
2022/11/11 17:29:44;;;;;;;61.40;28.25;;;;;;;;;;6280964;28;20095;-60
2022/11/11 17:32:46;;;;;;;56.20;20.83;;;;;;;;;;6279465;28;20044;-62
2022/11/11 17:35:50;;;;;;;;;;;;;;;;;;6280552;28;20098;-63
2022/11/11 17:38:50;;;;;;;63.20;21.95;;;;;;;;;;6278505;28;19925;-61
2022/11/11 17:41:51;;;;;;;98.35;37.92;;;;;;;;;;6278657;28;20083;-61
2022/11/11 17:44:51;;;;;;;145.18;52.90;;;;;;;;;;6278344;28;20049;-61
2022/11/11 17:47:54;;;;;;;116.90;45.45;;;;;;;;;;6275700;28;20205;-61
2022/11/11 17:50:54;;;;;;;79.05;32.25;;;;;;;;;;6281521;28;20139;-64
2022/11/11 17:53:56;;;;;;;79.10;34.90;;;;;;;;;;6278767;28;20193;-61
2022/11/11 17:56:56;;;;;;;75.20;36.00;;;;;;;;;;6278453;28;20056;-59
2022/11/11 17:59:57;;;;;;;62.20;25.02;;;;;;;;;;6279019;28;20788;-60
2022/11/11 18:02:57;;;;;;;72.65;26.58;;;;;;;;;;6277289;28;20125;-61
2022/11/11 18:05:58;;;;;;;60.67;24.42;;;;;;;;;;6278116;28;20678;-61
2022/11/11 18:08:59;;;;;;;55.45;23.50;;;;;;;;;;6278904;28;20044;-61
2022/11/11 18:12:00;;;;;;;58.67;23.60;;;;;;;;;;6276594;28;20045;-61
2022/11/11 18:15:00;;;;;;;55.78;24.60;;;;;;;;;;6280010;28;20044;-61
2022/11/11 18:18:02;;;;;;;57.03;23.05;;;;;;;;;;6275936;28;20055;-61
2022/11/11 18:21:04;;;;;;;67.40;25.10;;;;;;;;;;6279464;28;20052;-60
2022/11/11 18:24:05;;;;;;;58.95;24.27;;;;;;;;;;6281033;28;20045;-61
2022/11/11 18:27:06;;;;;;;62.45;23.67;;;;;;;;;;6281187;28;20080;-61
2022/11/11 18:30:07;;;;;;;60.92;22.58;;;;;;;;;;6284937;28;20090;-60
2022/11/11 18:33:08;;;;;;;63.45;23.05;;;;;;;;;;6282575;28;20477;-60
2022/11/11 18:36:12;;;;;;;57.80;23.73;;;;;;;;;;6282682;28;20075;-61
2022/11/11 18:39:13;;;;;;;55.95;21.60;;;;;;;;;;6283715;28;20059;-64
2022/11/11 18:42:14;;;;;;;101.15;42.95;;;;;;;;;;6282367;28;20080;-61
2022/11/11 18:45:16;;;;;;;72.65;33.53;;;;;;;;;;6284136;28;20044;-60
2022/11/11 18:48:16;;;;;;;;;;;;;;;;;;6282913;28;20578;-61
2022/11/11 18:51:17;;;;;;;65.95;27.00;;;;;;;;;;6281707;28;20002;-64
2022/11/11 18:54:18;;;;;;;68.35;29.80;;;;;;;;;;6265485;28;20791;-60
2022/11/11 18:57:18;;;;;;;72.90;30.17;;;;;;;;;;6282288;28;20056;-63
2022/11/11 19:00:20;;;;;;;62.63;25.63;;;;;;;;;;6282323;28;20052;-60
2022/11/11 19:03:20;;;;;;;55.42;21.85;;;;;;;;;;6281067;28;20151;-65
2022/11/11 19:06:22;;;;;;;59.08;24.42;;;;;;;;;;6282657;28;20048;-61
2022/11/11 19:09:23;;;;;;;67.70;24.97;;;;;;;;;;6283183;28;20048;-64
2022/11/11 19:12:24;;;;;;;58.97;25.20;;;;;;;;;;6281218;28;20052;-60
2022/11/11 19:15:24;;;;;;;61.15;25.63;;;;;;;;;;6282820;28;20426;-61
2022/11/11 19:18:25;;;;;;;55.88;23.85;;;;;;;;;;6280365;28;20041;-60
2022/11/11 19:21:29;;;;;;;63.88;25.25;;;;;;;;;;6281046;28;20047;-61
2022/11/11 19:24:30;;;;;;;56.97;23.70;;;;;;;;;;6281013;28;20049;-61